Time;durP1;ratioP1;P1;durP2;ratioP2;P2;SDS_P1;SDS_P2;PMS_P1;PMS_P2;Temp;Humidity;BMP_temperature;BMP_pressure;BME280_temperature;BME280_humidity;BME280_pressure;Samples;Min_cycle;Max_cycle;Signal;HPM_P1;HPM_P2
2022/01/25 00:08:22;;;;;;;49.90;23.48;;;;;;;;;;5102232;27;20537;-84
2022/01/25 00:33:51;;;;;;;70.03;33.40;;;;;;;;;;5079476;28;20082;-82
2022/01/25 00:36:18;;;;;;;58.03;24.67;;;;;;;;;;5092148;27;20055;-83
2022/01/25 00:38:45;;;;;;;48.45;22.38;;;;;;;;;;5104183;27;20127;-81
2022/01/25 00:41:11;;;;;;;65.40;27.35;;;;;;;;;;5096537;27;20300;-82
2022/01/25 00:43:38;;;;;;;71.43;33.38;;;4.20;1.00;;;;;;5096975;28;20056;-83
2022/01/25 00:46:08;;;;;;;59.30;27.55;;;;;;;;;;5099925;27;20123;-82
2022/01/25 00:56:23;;;;;;;69.88;32.00;;;;;;;;;;5091299;27;20385;-80
2022/01/25 00:58:49;;;;;;;67.45;30.92;;;;;;;;;;5079098;27;20046;-83
2022/01/25 01:01:16;;;;;;;54.17;21.42;;;;;;;;;;5089106;28;20505;-82
2022/01/25 01:03:42;;;;;;;62.30;28.17;;;;;;;;;;5096118;27;20039;-82
2022/01/25 01:06:08;;;;;;;70.78;31.23;;;;;;;;;;5096132;28;20032;-83
2022/01/25 01:08:34;;;;;;;37.40;17.23;;;;;;;;;;5097410;27;20057;-83
2022/01/25 01:11:03;;;;;;;26.73;14.38;;;;;;;;;;5099025;27;20049;-83
2022/01/25 01:41:16;;;;;;;72.35;34.22;;;;;;;;;;5095648;27;20305;-83
2022/01/25 01:43:37;;;;;;;63.85;28.10;;;;;;;;;;5088811;28;20035;-82
2022/01/25 01:48:42;;;;;;;74.45;35.17;;;;;;;;;;5094177;27;20510;-82
2022/01/25 01:51:17;;;;;;;62.70;27.75;;;;;;;;;;5079354;27;20047;-82
2022/01/25 01:53:43;;;;;;;70.05;30.42;;;;;;;;;;5076827;27;20474;-81
2022/01/25 01:56:09;;;;;;;63.47;26.65;;;;;;;;;;5093632;27;20051;-82
2022/01/25 01:58:36;;;;;;;62.97;29.50;;;;;;;;;;5080401;27;20366;-82
2022/01/25 02:01:03;;;;;;;73.80;33.80;;;;;;;;;;5081215;27;20074;-81
2022/01/25 02:03:29;;;;;;;70.32;30.88;;;;;;;;;;5082850;27;20565;-83
2022/01/25 02:05:55;;;;;;;66.03;30.27;;;;;;;;;;5097565;27;20409;-82
2022/01/25 02:08:21;;;;;;;76.13;34.83;;;;;;;;;;5089846;28;20032;-82
2022/01/25 02:10:48;;;;;;;60.60;26.67;;;;;;;;;;5098526;27;20370;-82
2022/01/25 02:13:14;;;;;;;75.47;36.35;;;;;;;;;;5096777;28;20038;-81
2022/01/25 02:15:44;;;;;;;74.00;35.10;;;;;;;;;;5097127;27;20047;-81
2022/01/25 02:23:34;;;;;;;61.28;28.90;;;;;;;;;;5106773;27;20039;-84
2022/01/25 02:26:01;;;;;;;72.82;34.95;;;;;;;;;;5102480;27;20514;-82
2022/01/25 02:28:35;;;;;;;68.00;29.15;;;;;;;;;;5099822;27;20518;-82
2022/01/25 02:31:01;;;;;;;65.43;27.33;;;;;;;;;;5090443;27;20146;-80
2022/01/25 02:33:28;;;;;;;71.63;33.40;;;;;;;;;;5075629;27;20053;-82
2022/01/25 02:35:55;;;;;;;74.97;34.10;;;;;;;;;;5096235;28;20053;-82
2022/01/25 02:38:26;;;;;;;78.40;35.03;;;;;;;;;;5088541;28;20050;-82
2022/01/25 02:40:52;;;;;;;69.15;31.27;;;;;;;;;;5092418;28;20522;-82
2022/01/25 02:43:20;;;;;;;62.00;28.55;;;;;;;;;;5093201;28;20047;-82
2022/01/25 02:46:06;;;;;;;61.95;28.75;;;;;;;;;;5097997;27;20415;-83
2022/01/25 02:48:32;;;;;;;;;;;;;;;;;;5103443;27;20418;-83
2022/01/25 02:51:02;;;;;;;66.03;29.55;;;;;;;;;;5100789;27;19923;-82
2022/01/25 02:53:28;;;;;;;49.70;22.23;;;;;;;;;;5096170;28;20047;-83
2022/01/25 02:55:55;;;;;;;48.83;20.42;;;;;;;;;;5101248;27;20544;-82
2022/01/25 02:58:21;;;;;;;30.20;13.52;;;;;;;;;;5102778;27;20077;-82
2022/01/25 03:00:47;;;;;;;76.25;34.05;;;;;;;;;;5100321;27;20479;-82
2022/01/25 03:03:13;;;;;;;68.93;30.55;;;;;;;;;;5095149;27;20043;-82
2022/01/25 03:05:39;;;;;;;68.13;30.23;;;;;;;;;;5079540;27;20031;-82
2022/01/25 03:08:11;;;;;;;73.72;31.67;;;;;;;;;;5104530;27;20057;-82
2022/01/25 03:10:39;;;;;;;40.83;17.23;;;;;;;;;;5098644;27;20112;-82
2022/01/25 03:13:10;;;;;;;78.80;36.83;;;;;;;;;;5098399;27;20485;-82
2022/01/25 03:18:37;;;;;;;65.07;29.23;;;;;;;;;;5094875;27;20643;-83
2022/01/25 03:21:15;;;;;;;71.68;30.98;;;;;;;;;;5097766;27;20043;-83
2022/01/25 03:23:42;;;;;;;73.45;32.38;;;;;;;;;;5105894;27;20039;-83
2022/01/25 03:26:08;;;;;;;82.38;36.55;;;;;;;;;;5088872;27;20069;-83
2022/01/25 03:28:34;;;;;;;51.35;19.23;;;;;;;;;;5103282;27;20155;-83
2022/01/25 03:31:00;;;;;;;68.07;30.77;;;;;;;;;;5103933;27;20216;-81
2022/01/25 03:33:26;;;;;;;70.03;28.50;;;;;;;;;;5098754;28;20510;-83
2022/01/25 03:35:52;;;;;;;78.82;34.75;;;;;;;;;;5093475;27;20111;-81
2022/01/25 03:38:19;;;;;;;60.05;26.20;;;;;;;;;;5101960;27;20051;-83
2022/01/25 03:40:45;;;;;;;76.00;33.22;;;;;;;;;;5100139;27;20120;-82
2022/01/25 03:43:13;;;;;;;45.72;20.88;;;;;;;;;;5087747;27;20036;-83
2022/01/25 03:45:43;;;;;;;69.97;29.77;;;;;;;;;;5104886;27;20501;-83
2022/01/25 03:50:41;;;;;;;52.10;20.90;;;;;;;;;;5102662;27;20479;-83
2022/01/25 03:53:08;;;;;;;83.15;38.20;;;;;;;;;;5099294;27;20078;-83
2022/01/25 03:55:34;;;;;;;72.25;31.65;;;;;;;;;;5101560;28;20416;-83
2022/01/25 03:58:00;;;;;;;54.00;19.92;;;;;;;;;;5085700;27;20035;-83
2022/01/25 04:00:26;;;;;;;75.05;34.28;;;;;;;;;;5095329;27;20542;-80
2022/01/25 04:03:18;;;;;;;79.57;36.30;;;;;;;;;;5085606;27;20457;-82
2022/01/25 04:08:08;;;;;;;68.35;28.77;;;;;;;;;;5092942;28;20347;-83
2022/01/25 04:10:35;;;;;;;62.60;25.63;;;;;;;;;;5083621;27;20039;-83
2022/01/25 04:13:01;;;;;;;75.88;32.38;;;;;;;;;;5101451;27;20039;-82
2022/01/25 04:15:27;;;;;;;80.90;38.60;;;;;;;;;;5088412;27;20189;-83
2022/01/25 04:18:20;;;;;;;78.38;35.67;;;;;;;;;;5099225;27;20042;-82
2022/01/25 04:20:41;;;;;;;73.10;29.85;;;;;;;;;;5099563;27;20169;-83
2022/01/25 04:25:51;;;;;;;71.23;29.73;;;;;;;;;;5095370;27;20035;-83
2022/01/25 04:28:18;;;;;;;77.10;32.50;;;;;;;;;;5084779;27;20303;-82
2022/01/25 04:30:44;;;;;;;53.45;21.38;;;;;;;;;;5093619;27;20102;-82
2022/01/25 04:33:24;;;;;;;43.70;21.23;;;;;;;;;;5077499;27;20047;-83
2022/01/25 04:49:25;;;;;;;66.65;28.42;;;;;;;;;;5116689;27;20077;-83
2022/01/25 04:51:57;;;;;;;69.80;32.40;;;;;;;;;;5073059;27;20047;-83
2022/01/25 05:02:16;;;;;;;86.03;37.80;;;;;;;;;;5115479;27;20465;-84
2022/01/25 05:04:52;;;;;;;83.53;35.63;;;;;;;;;;5122502;27;20417;-83
2022/01/25 05:09:52;;;;;;;64.13;28.33;;;;;;;;;;5101543;27;20035;-83
2022/01/25 05:12:28;;;;;;;70.60;30.75;;;;;;;;;;5101580;27;20500;-84
2022/01/25 05:15:16;;;;;;;65.00;27.70;;;;;;;;;;5095099;27;20110;-83
2022/01/25 05:17:45;;;;;;;57.53;24.38;;;;;;;;;;5080947;27;20043;-84
2022/01/25 05:22:55;;;;;;;74.03;33.38;;;4.20;99.90;;;;;;5097769;27;20092;-84
2022/01/25 05:25:21;;;;;;;54.40;23.02;;;;;;;;;;5080713;28;20032;-84
2022/01/25 05:27:48;;;;;;;68.47;30.67;;;;;;;;;;5097204;27;20118;-83
2022/01/25 05:30:14;;;;;;;69.07;30.88;;;;;;;;;;5099147;27;20344;-84
2022/01/25 05:32:40;;;;;;;63.15;27.33;;;;;;;;;;5093874;28;20047;-84
2022/01/25 05:35:06;;;;;;;39.08;15.82;;;;;;;;;;5100224;27;20073;-84
2022/01/25 05:37:36;;;;;;;37.78;17.20;;;;;;;;;;5099508;27;20454;-83
2022/01/25 05:40:07;;;;;;;76.55;30.50;;;4.10;64.90;;;;;;5085076;27;20081;-82
2022/01/25 05:47:39;;;;;;;69.57;30.15;;;;;;;;;;5099521;27;20047;-83
2022/01/25 05:50:06;;;;;;;78.28;35.75;;;;;;;;;;5093877;28;20533;-84
2022/01/25 05:52:32;;;;;;;68.82;30.73;;;;;;;;;;5092004;28;20047;-84
2022/01/25 05:54:59;;;;;;;81.03;38.83;;;;;;;;;;5094821;28;20043;-82
2022/01/25 05:57:26;;;;;;;93.40;38.25;;;;;;;;;;5072854;28;20474;-83
2022/01/25 05:59:53;;;;;;;82.20;38.38;;;;;;;;;;5088044;28;20046;-82
2022/01/25 06:02:21;;;;;;;77.38;32.10;;;;;;;;;;5087159;28;20044;-82
2022/01/25 06:04:47;;;;;;;69.70;31.35;;;;;;;;;;5074706;28;20506;-82
2022/01/25 06:07:14;;;;;;;70.03;29.42;;;;;;;;;;5095998;28;20040;-83
2022/01/25 06:09:41;;;;;;;61.92;26.85;;;;;;;;;;5089716;28;20078;-83
2022/01/25 06:12:07;;;;;;;72.20;32.63;;;;;;;;;;5084347;28;20094;-83
2022/01/25 06:14:33;;;;;;;68.45;27.67;;;;;;;;;;5086703;28;20075;-81
2022/01/25 06:16:59;;;;;;;37.60;15.80;;;;;;;;;;5089928;28;20096;-82
2022/01/25 06:19:26;;;;;;;68.63;29.23;;;;;;;;;;5089201;28;20562;-83
2022/01/25 06:21:52;;;;;;;30.00;14.93;;;;;;;;;;5091720;28;20207;-82
2022/01/25 06:24:18;;;;;;;64.65;28.55;;;;;;;;;;5091550;28;20375;-82
2022/01/25 06:26:44;;;;;;;57.25;25.98;;;;;;;;;;5099718;28;20067;-83
2022/01/25 06:29:11;;;;;;;68.35;28.77;;;;;;;;;;5097156;28;20078;-82
2022/01/25 06:31:37;;;;;;;74.80;28.48;;;;;;;;;;5073159;28;20058;-82
2022/01/25 06:34:04;;;;;;;63.53;27.70;;;;;;;;;;5087661;28;20036;-82
2022/01/25 06:36:30;;;;;;;68.47;28.02;;;;;;;;;;5094202;28;20082;-82
2022/01/25 06:38:56;;;;;;;67.90;28.80;;;;;;;;;;5094594;28;20089;-82
2022/01/25 06:41:22;;;;;;;75.78;33.90;;;;;;;;;;5086963;28;20149;-83
2022/01/25 06:43:48;;;;;;;52.40;20.17;;;;;;;;;;5088049;28;20048;-82
2022/01/25 06:46:14;;;;;;;47.67;20.25;;;;;;;;;;5079584;28;20548;-83
2022/01/25 06:48:40;;;;;;;72.65;34.22;;;;;;;;;;5085199;28;20036;-84
2022/01/25 06:51:07;;;;;;;71.25;31.55;;;;;;;;;;5073223;28;20055;-82
2022/01/25 06:53:33;;;;;;;76.72;32.38;;;;;;;;;;5087684;28;20043;-83
2022/01/25 06:55:59;;;;;;;77.57;32.90;;;;;;;;;;5088191;28;20047;-83
2022/01/25 06:58:25;;;;;;;72.22;28.33;;;;;;;;;;5074598;28;20165;-83
2022/01/25 07:00:51;;;;;;;81.13;33.72;;;;;;;;;;5094622;28;20047;-83
2022/01/25 07:03:17;;;;;;;85.78;35.92;;;;;;;;;;5068577;28;20044;-83
2022/01/25 07:05:43;;;;;;;65.43;27.13;;;;;;;;;;5088585;28;20149;-82
2022/01/25 07:08:09;;;;;;;74.90;28.40;;;;;;;;;;5092945;28;20081;-83
2022/01/25 07:10:36;;;;;;;32.03;15.90;;;;;;;;;;5089316;28;20099;-82
2022/01/25 07:13:02;;;;;;;35.50;16.42;;;;;;;;;;5096403;28;20048;-82
2022/01/25 07:15:28;;;;;;;58.88;25.85;;;;;;;;;;5092428;28;20031;-81
2022/01/25 07:17:54;;;;;;;75.38;32.97;;;;;;;;;;5071587;28;20040;-83
2022/01/25 07:20:20;;;;;;;71.90;28.85;;;;;;;;;;5074282;28;20271;-82
2022/01/25 07:22:46;;;;;;;55.25;24.55;;;;;;;;;;5096147;28;20040;-84
2022/01/25 07:25:13;;;;;;;49.50;20.15;;;;;;;;;;5093895;28;20043;-82
2022/01/25 07:27:39;;;;;;;61.70;26.35;;;;;;;;;;5075286;28;20086;-83
2022/01/25 07:30:06;;;;;;;59.58;22.55;;;;;;;;;;5091662;28;20066;-81
2022/01/25 07:32:33;;;;;;;74.85;29.95;;;4.10;79.00;;;;;;5093470;28;20036;-82
2022/01/25 07:34:59;;;;;;;72.10;28.02;;;;;;;;;;5099789;28;20071;-82
2022/01/25 07:37:25;;;;;;;88.10;36.65;;;;;;;;;;5092087;28;20079;-82
2022/01/25 07:39:51;;;;;;;82.32;36.55;;;;;;;;;;5091765;28;20078;-81
2022/01/25 07:42:18;;;;;;;97.13;37.67;;;;;;;;;;5094358;28;20193;-83
2022/01/25 07:44:44;;;;;;;85.05;37.22;;;;;;;;;;5099612;28;20520;-83
2022/01/25 07:47:11;;;;;;;77.32;32.50;;;;;;;;;;5096961;28;20040;-87
2022/01/25 07:49:37;;;;;;;80.15;31.02;;;;;;;;;;5090547;28;20052;-84
2022/01/25 07:52:05;;;;;;;84.95;37.33;;;4.10;99.90;;;;;;5098509;28;20078;-84
2022/01/25 07:54:31;;;;;;;92.75;36.45;;;;;;;;;;5094637;28;20043;-83
2022/01/25 07:56:58;;;;;;;82.22;38.30;;;;;;;;;;5096204;28;20530;-82
2022/01/25 07:59:24;;;;;;;87.13;33.80;;;;;;;;;;5082391;28;20505;-84
2022/01/25 08:01:51;;;;;;;75.72;30.73;;;;;;;;;;5090078;28;20040;-81
2022/01/25 08:04:18;;;;;;;81.53;34.53;;;;;;;;;;5093004;28;20071;-79
2022/01/25 08:06:44;;;;;;;77.40;33.67;;;;;;;;;;5074599;28;20031;-81
2022/01/25 08:09:11;;;;;;;47.22;16.80;;;;;;;;;;5090912;28;20098;-80
2022/01/25 08:11:37;;;;;;;79.55;33.47;;;;;;;;;;5088261;28;20103;-79
2022/01/25 08:14:16;;;;;;;83.00;35.17;;;;;;;;;;5094217;28;20046;-80
2022/01/25 08:16:43;;;;;;;79.35;30.42;;;;;;;;;;5097518;28;20517;-80
2022/01/25 08:19:10;;;;;;;70.40;27.58;;;;;;;;;;5093451;28;20418;-80
2022/01/25 08:21:42;;;;;;;83.97;33.78;;;;;;;;;;5087677;28;20075;-80
2022/01/25 08:24:13;;;;;;;91.75;37.55;;;;;;;;;;5088000;28;20067;-80
2022/01/25 08:26:40;;;;;;;56.63;20.67;;;;;;;;;;5090717;28;20122;-80
2022/01/25 08:29:07;;;;;;;79.95;31.73;;;;;;;;;;5092786;28;20404;-80
2022/01/25 08:31:33;;;;;;;64.47;26.75;;;;;;;;;;5074351;28;20061;-80
2022/01/25 08:34:00;;;;;;;72.95;32.15;;;4.70;99.90;;;;;;5097524;28;20045;-80
2022/01/25 08:36:27;;;;;;;68.60;27.25;;;;;;;;;;5099096;28;20137;-80
2022/01/25 08:38:53;;;;;;;75.47;33.22;;;;;;;;;;5096730;28;20037;-80
2022/01/25 08:41:20;;;;;;;48.83;20.33;;;;;;;;;;5093101;28;20527;-80
2022/01/25 08:43:46;;;;;;;39.58;14.65;;;;;;;;;;5095546;28;20041;-79
2022/01/25 08:46:12;;;;;;;74.72;32.63;;;;;;;;;;5077754;28;20278;-79
2022/01/25 08:48:39;;;;;;;71.30;27.58;;;;;;;;;;5088210;28;20508;-80
2022/01/25 08:51:07;;;;;;;68.80;27.58;;;;;;;;;;5098744;28;20055;-81
2022/01/25 08:53:33;;;;;;;65.93;26.42;;;;;;;;;;5087780;28;20585;-80
2022/01/25 08:56:00;;;;;;;81.00;32.85;;;;;;;;;;5096187;28;20128;-80
2022/01/25 08:58:26;;;;;;;82.93;33.97;;;;;;;;;;5094363;28;20122;-80
2022/01/25 09:00:53;;;;;;;61.90;23.67;;;;;;;;;;5093206;28;20043;-80
2022/01/25 09:03:19;;;;;;;80.47;34.80;;;;;;;;;;5090182;28;20066;-80
2022/01/25 09:05:45;;;;;;;59.97;23.65;;;;;;;;;;5087186;28;20047;-79
2022/01/25 09:08:18;;;;;;;75.80;31.08;;;;;;;;;;5100098;28;20039;-81
2022/01/25 09:10:45;;;;;;;88.43;36.80;;;;;;;;;;5093294;28;20048;-82
2022/01/25 09:13:11;;;;;;;58.88;23.77;;;;;;;;;;5088058;28;20040;-80
2022/01/25 09:15:37;;;;;;;44.38;19.42;;;;;;;;;;5070354;28;20044;-80
2022/01/25 09:18:03;;;;;;;53.50;24.35;;;;;;;;;;5078638;28;20042;-81
2022/01/25 09:20:29;;;;;;;63.10;27.20;;;;;;;;;;5094243;28;20055;-81
2022/01/25 09:22:55;;;;;;;56.42;22.67;;;;;;;;;;5099272;28;20039;-80
2022/01/25 09:25:21;;;;;;;66.75;28.65;;;;;;;;;;5088445;28;20090;-80
2022/01/25 09:27:48;;;;;;;68.03;26.15;;;;;;;;;;5093643;28;20403;-80
2022/01/25 09:30:14;;;;;;;73.53;29.90;;;;;;;;;;5071933;28;20135;-80
2022/01/25 09:32:41;;;;;;;80.07;33.47;;;;;;;;;;5094245;28;20048;-80
2022/01/25 09:35:07;;;;;;;39.80;17.55;;;;;;;;;;5088753;28;20065;-84
2022/01/25 09:37:33;;;;;;;38.15;16.38;;;;;;;;;;5093031;28;20043;-83
2022/01/25 09:40:00;;;;;;;53.63;23.98;;;;;;;;;;5088725;28;20047;-83
2022/01/25 09:42:29;;;;;;;70.35;29.35;;;;;;;;;;5093676;28;20040;-82
2022/01/25 09:44:55;;;;;;;74.47;30.58;;;;;;;;;;5067119;28;20044;-83
2022/01/25 09:47:21;;;;;;;86.97;34.55;;;;;;;;;;5087892;28;20070;-82
2022/01/25 09:49:47;;;;;;;69.60;28.27;;;;;;;;;;5097651;27;20120;-83
2022/01/25 09:52:13;;;;;;;81.55;32.88;;;;;;;;;;5087772;28;20245;-82
2022/01/25 09:54:41;;;;;;;76.78;32.85;;;;;;;;;;5093242;28;20047;-82
2022/01/25 09:57:07;;;;;;;76.20;32.45;;;;;;;;;;5095559;27;20488;-82
2022/01/25 09:59:34;;;;;;;65.70;27.95;;;;;;;;;;5115285;27;20425;-82
2022/01/25 10:02:00;;;;;;;90.50;40.15;;;;;;;;;;5077918;28;20420;-83
2022/01/25 10:04:27;;;;;;;90.38;37.50;;;;;;;;;;5095280;27;20127;-83
2022/01/25 10:06:53;;;;;;;61.03;25.30;;;;;;;;;;5095235;27;20039;-84
2022/01/25 10:09:20;;;;;;;71.00;28.10;;;;;;;;;;5088970;27;20465;-82
2022/01/25 10:11:48;;;;;;;84.93;36.90;;;;;;;;;;5095015;28;20130;-82
2022/01/25 10:14:14;;;;;;;68.13;26.63;;;;;;;;;;5082445;27;20043;-83
2022/01/25 10:16:43;;;;;;;68.18;28.98;;;;;;;;;;5078977;28;20532;-83
2022/01/25 10:19:12;;;;;;;61.08;25.23;;;;;;;;;;5088109;27;20043;-84
2022/01/25 10:21:44;;;;;;;50.30;20.77;;;4.30;99.90;;;;;;5096895;27;20047;-86
2022/01/25 10:24:18;;;;;;;79.88;33.70;;;;;;;;;;5081131;27;20073;-82
2022/01/25 10:26:48;;;;;;;88.85;36.70;;;;;;;;;;5074995;28;20417;-82
2022/01/25 10:29:19;;;;;;;66.25;25.55;;;;;;;;;;5081539;27;20069;-82
2022/01/25 10:31:50;;;;;;;77.38;29.63;;;;;;;;;;5091782;27;20047;-82
2022/01/25 10:34:20;;;;;;;42.15;16.77;;;;;;;;;;5098540;28;20527;-81
2022/01/25 10:36:48;;;;;;;58.55;24.40;;;;;;;;;;5075117;28;20047;-82
2022/01/25 10:39:19;;;;;;;53.00;20.38;;;;;;;;;;5078917;28;20093;-83
2022/01/25 10:41:46;;;;;;;78.78;34.88;;;;;;;;;;5080176;27;20495;-81
2022/01/25 10:44:12;;;;;;;59.13;24.33;;;;;;;;;;5098164;28;20035;-83
2022/01/25 10:46:39;;;;;;;80.55;32.15;;;;;;;;;;5075108;28;20031;-83
2022/01/25 10:49:12;;;;;;;65.75;27.65;;;;;;;;;;5083034;27;20401;-82
2022/01/25 10:51:43;;;;;;;68.15;27.75;;;;;;;;;;5093431;28;20054;-82
2022/01/25 10:54:20;;;;;;;63.55;24.65;;;;;;;;;;5097844;28;20062;-82
2022/01/25 10:56:47;;;;;;;86.25;34.88;;;;;;;;;;5093422;28;20047;-82
2022/01/25 10:59:15;;;;;;;79.75;33.33;;;;;;;;;;5075791;28;20039;-81
2022/01/25 11:01:45;;;;;;;77.93;32.08;;;;;;;;;;5098093;28;20045;-82
2022/01/25 11:04:16;;;;;;;64.20;25.63;;;;;;;;;;5090817;28;20035;-82
2022/01/25 11:06:43;;;;;;;74.88;33.03;;;;;;;;;;5092435;27;20134;-81
2022/01/25 11:09:11;;;;;;;66.38;25.40;;;;;;;;;;5083043;27;20050;-81
2022/01/25 11:11:40;;;;;;;87.25;36.40;;;;;;;;;;5100978;27;20039;-81
2022/01/25 11:16:53;;;;;;;83.60;36.25;;;;;;;;;;5097892;27;20520;-83
2022/01/25 11:19:21;;;;;;;70.63;31.05;;;;;;;;;;5084626;27;20114;-83
2022/01/25 11:21:47;;;;;;;61.88;26.88;;;;;;;;;;5102217;27;20161;-82
2022/01/25 11:24:17;;;;;;;87.25;38.08;;;;;;;;;;5089836;27;20039;-82
2022/01/25 11:26:44;;;;;;;40.42;18.35;;;;;;;;;;5114655;27;20049;-81
2022/01/25 11:29:10;;;;;;;63.67;26.58;;;;;;;;;;5097375;28;20061;-83
2022/01/25 11:31:38;;;;;;;48.05;20.27;;;;;;;;;;5101877;27;20480;-82
2022/01/25 11:34:08;;;;;;;47.78;19.95;;;;;;;;;;5097265;27;20039;-82
2022/01/25 11:36:42;;;;;;;57.63;23.90;;;;;;;;;;5081200;27;20103;-82
2022/01/25 11:39:10;;;;;;;53.85;24.10;;;4.50;99.90;;;;;;5105072;27;20306;-82
2022/01/25 11:41:42;;;;;;;72.10;31.48;;;;;;;;;;5095111;27;20035;-82
2022/01/25 11:44:10;;;;;;;59.83;25.80;;;;;;;;;;5083761;27;20035;-82
2022/01/25 11:46:37;;;;;;;43.85;17.80;;;;;;;;;;5099076;27;20039;-83
2022/01/25 11:49:16;;;;;;;64.85;28.88;;;4.40;99.90;;;;;;5088077;27;20041;-82
2022/01/25 11:51:43;;;;;;;58.08;24.05;;;4.40;94.60;;;;;;5102611;27;20075;-83
2022/01/25 11:54:09;;;;;;;73.78;31.50;;;;;;;;;;5097234;27;20409;-82
2022/01/25 11:56:41;;;;;;;48.88;22.38;;;;;;;;;;5098454;27;20106;-82
2022/01/25 11:59:10;;;;;;;65.80;28.25;;;;;;;;;;5100406;27;20968;-83
2022/01/25 12:01:36;;;;;;;51.20;23.58;;;;;;;;;;5093961;27;20043;-82
2022/01/25 12:04:04;;;;;;;62.10;26.58;;;;;;;;;;5098537;27;20358;-83
2022/01/25 12:06:34;;;;;;;70.95;27.65;;;;;;;;;;5099314;27;20634;-82
2022/01/25 12:11:40;;;;;;;50.80;21.95;;;;;;;;;;5096731;27;20398;-82
2022/01/25 12:14:14;;;;;;;48.72;21.40;;;;;;;;;;5078729;27;20508;-82
2022/01/25 12:16:44;;;;;;;54.88;21.08;;;;;;;;;;5081786;28;20042;-82
2022/01/25 12:19:12;;;;;;;47.45;18.92;;;;;;;;;;5097637;27;20038;-83
2022/01/25 12:21:49;;;;;;;83.53;34.25;;;;;;;;;;5099794;27;20040;-83
2022/01/25 12:24:26;;;;;;;55.88;23.75;;;4.40;99.90;;;;;;5093570;28;20082;-82
2022/01/25 12:27:07;;;;;;;83.88;34.33;;;;;;;;;;5080943;27;20092;-82
2022/01/25 12:29:35;;;;;;;42.08;17.02;;;;;;;;;;5099630;28;20043;-82
2022/01/25 12:32:20;;;;;;;49.88;20.45;;;4.30;89.10;;;;;;5098196;27;20062;-83
2022/01/25 12:34:59;;;;;;;75.38;28.88;;;;;;;;;;5099877;27;20119;-82
2022/01/25 12:37:53;;;;;;;67.60;28.23;;;;;;;;;;5082327;27;20047;-83
2022/01/25 12:40:25;;;;;;;60.88;26.40;;;;;;;;;;5097409;27;20062;-83
2022/01/25 12:42:55;;;;;;;48.92;19.02;;;;;;;;;;5076866;27;20035;-82
2022/01/25 12:45:23;;;;;;;69.47;28.73;;;;;;;;;;5101121;27;20031;-82
2022/01/25 12:47:52;;;;;;;76.03;30.05;;;;;;;;;;5081969;27;20172;-82
2022/01/25 12:50:18;;;;;;;70.82;31.38;;;4.30;99.90;;;;;;5116266;27;20048;-82
2022/01/25 12:52:48;;;;;;;36.38;16.88;;;;;;;;;;5096424;27;20039;-82
2022/01/25 12:55:16;;;;;;;77.18;33.65;;;;;;;;;;5075629;27;20100;-80
2022/01/25 12:57:46;;;;;;;69.97;26.92;;;;;;;;;;5092776;27;20130;-81
2022/01/25 13:00:14;;;;;;;59.22;23.83;;;4.30;99.90;;;;;;5113889;27;20126;-80
2022/01/25 13:02:41;;;;;;;59.15;23.40;;;;;;;;;;5091876;27;20096;-81
2022/01/25 13:05:17;;;;;;;35.25;14.85;;;;;;;;;;5095171;27;20053;-81
2022/01/25 13:07:44;;;;;;;50.38;19.90;;;;;;;;;;5096059;27;20520;-81
2022/01/25 13:10:12;;;;;;;43.38;18.15;;;;;;;;;;5094760;27;21408;-80
2022/01/25 13:12:55;;;;;;;59.13;22.25;;;4.30;99.90;;;;;;5072956;27;20038;-80
2022/01/25 13:18:15;;;;;;;41.95;16.80;;;4.20;99.90;;;;;;5095800;27;20512;-81
2022/01/25 13:20:43;;;;;;;50.63;20.77;;;;;;;;;;5094752;27;20078;-80
2022/01/25 13:23:09;;;;;;;73.35;28.02;;;;;;;;;;5089056;28;20564;-80
2022/01/25 13:25:53;;;;;;;43.13;19.17;;;;;;;;;;5080882;27;20077;-80
2022/01/25 13:28:40;;;;;;;49.65;21.75;;;;;;;;;;5094168;28;20032;-81
2022/01/25 13:31:09;;;;;;;61.95;23.95;;;;;;;;;;5083992;27;20043;-80
2022/01/25 13:33:36;;;;;;;86.95;33.63;;;;;;;;;;5101598;27;20039;-80
2022/01/25 13:36:03;;;;;;;51.92;21.33;;;;;;;;;;5094125;27;20109;-80
2022/01/25 13:38:41;;;;;;;51.10;22.13;;;4.20;99.90;;;;;;5077892;27;20120;-81
2022/01/25 13:46:23;;;;;;;72.88;29.33;;;;;;;;;;5098410;27;20039;-81
2022/01/25 13:48:50;;;;;;;47.22;19.55;;;;;;;;;;5083416;28;20528;-81
2022/01/25 13:51:18;;;;;;;83.03;33.17;;;;;;;;;;5080769;28;20134;-81
2022/01/25 13:53:49;;;;;;;75.90;30.73;;;;;;;;;;5094897;28;20144;-80
2022/01/25 13:56:16;;;;;;;65.22;25.95;;;;;;;;;;5096202;28;20096;-80
2022/01/25 13:58:45;;;;;;;61.92;24.25;;;;;;;;;;5095685;28;20122;-81
2022/01/25 14:01:15;;;;;;;80.75;30.92;;;;;;;;;;5097791;28;20519;-82
2022/01/25 14:04:13;;;;;;;52.72;20.38;;;;;;;;;;5092188;28;20074;-81
2022/01/25 14:06:43;;;;;;;93.22;38.03;;;4.20;99.90;;;;;;5059885;28;20044;-85
2022/01/25 14:09:12;;;;;;;88.72;34.05;;;;;;;;;;5065751;28;20040;-81
2022/01/25 14:23:18;;;;;;;48.13;22.33;;;;;;;;;;5087481;28;20062;-82
2022/01/25 14:25:42;;;;;;;74.95;29.13;;;;;;;;;;5086619;28;20142;-83
2022/01/25 14:28:11;;;;;;;83.57;33.30;;;;;;;;;;5074952;28;20039;-82
2022/01/25 14:30:39;;;;;;;65.35;23.77;;;;;;;;;;5094167;28;20055;-83
2022/01/25 14:33:14;;;;;;;43.65;19.30;;;;;;;;;;5094728;28;20075;-82
2022/01/25 14:35:45;;;;;;;51.90;21.98;;;;;;;;;;5087906;28;20039;-81
2022/01/25 14:38:15;;;;;;;66.35;26.63;;;;;;;;;;5097417;28;20040;-81
2022/01/25 14:40:41;;;;;;;90.03;35.45;;;;;;;;;;5087850;28;20401;-82
2022/01/25 14:43:08;;;;;;;55.53;21.83;;;3.90;99.90;;;;;;5087071;28;20051;-82
2022/01/25 14:45:34;;;;;;;64.47;24.63;;;;;;;;;;5093082;28;20323;-81
2022/01/25 14:48:02;;;;;;;62.55;25.00;;;;;;;;;;5097161;28;20067;-79
2022/01/25 14:50:33;;;;;;;66.90;29.85;;;;;;;;;;5083471;28;20043;-80
2022/01/25 14:53:07;;;;;;;88.63;36.63;;;;;;;;;;5092548;28;20044;-83
2022/01/25 14:55:35;;;;;;;59.08;23.27;;;;;;;;;;5069082;28;20047;-82
2022/01/25 14:58:10;;;;;;;52.20;19.85;;;;;;;;;;5091001;28;20044;-80
2022/01/25 15:00:41;;;;;;;41.53;17.25;;;;;;;;;;5076465;28;20044;-80
2022/01/25 15:03:08;;;;;;;74.97;27.67;;;;;;;;;;5096017;28;20485;-78
2022/01/25 15:05:34;;;;;;;99.20;35.22;;;;;;;;;;5098679;28;20378;-78
2022/01/25 15:08:00;;;;;;;86.68;29.63;;;;;;;;;;5093266;28;20078;-79
2022/01/25 15:10:31;;;;;;;71.90;28.05;;;;;;;;;;5086709;28;20050;-79
2022/01/25 15:12:57;;;;;;;88.28;32.17;;;;;;;;;;5087331;28;20107;-79
2022/01/25 15:15:33;;;;;;;51.47;19.25;;;;;;;;;;5078244;28;20046;-80
2022/01/25 15:17:59;;;;;;;96.88;36.67;;;;;;;;;;5094831;28;20090;-80
2022/01/25 15:20:26;;;;;;;57.97;22.02;;;;;;;;;;5089847;28;20036;-79
2022/01/25 15:22:52;;;;;;;72.75;25.38;;;;;;;;;;5091405;28;20040;-79
2022/01/25 15:25:24;;;;;;;99.03;36.20;;;;;;;;;;5091681;28;20047;-78
2022/01/25 15:27:52;;;;;;;85.30;31.77;;;;;;;;;;5092608;28;20570;-79
2022/01/25 15:30:19;;;;;;;54.17;21.83;;;;;;;;;;5093112;28;20098;-79
2022/01/25 15:32:46;;;;;;;90.88;34.63;;;;;;;;;;5085369;28;20050;-79
2022/01/25 15:35:12;;;;;;;42.78;17.70;;;;;;;;;;5085654;28;20130;-79
2022/01/25 15:37:40;;;;;;;108.30;38.70;;;;;;;;;;5086387;28;20572;-81
2022/01/25 15:40:06;;;;;;;65.25;24.17;;;;;;;;;;5071602;28;20176;-78
2022/01/25 15:42:35;;;;;;;43.55;15.60;;;;;;;;;;5095679;28;20123;-78
2022/01/25 15:45:11;;;;;;;91.13;30.80;;;;;;;;;;5086596;28;20475;-78
2022/01/25 15:47:37;;;;;;;92.32;28.00;;;;;;;;;;5108546;28;20526;-78
2022/01/25 15:50:03;;;;;;;110.93;38.45;;;3.50;99.90;;;;;;5091744;28;20126;-79
2022/01/25 15:52:30;;;;;;;62.25;21.98;;;;;;;;;;5087470;28;20127;-80
2022/01/25 15:54:56;;;;;;;89.72;30.67;;;;;;;;;;5097910;28;20042;-78
2022/01/25 15:57:22;;;;;;;53.00;19.65;;;;;;;;;;5096725;28;20042;-82
2022/01/25 15:59:48;;;;;;;76.93;25.83;;;;;;;;;;5092408;28;20142;-79
2022/01/25 16:02:15;;;;;;;50.55;20.38;;;;;;;;;;5086178;28;20036;-81
2022/01/25 16:04:43;;;;;;;40.38;17.70;;;;;;;;;;5094229;28;20505;-79
2022/01/25 16:07:10;;;;;;;77.90;26.48;;;;;;;;;;5077683;28;20062;-79
2022/01/25 16:09:40;;;;;;;119.72;38.35;;;;;;;;;;5084430;28;20032;-79
2022/01/25 16:12:07;;;;;;;61.25;19.65;;;;;;;;;;5088847;28;20052;-79
2022/01/25 16:14:34;;;;;;;68.03;23.88;;;;;;;;;;5097809;28;20109;-80
2022/01/25 16:17:01;;;;;;;70.45;24.73;;;;;;;;;;5097418;28;20039;-79
2022/01/25 16:19:27;;;;;;;66.45;23.55;;;;;;;;;;5083038;28;20044;-82
2022/01/25 16:21:53;;;;;;;66.70;22.40;;;;;;;;;;5093781;28;20497;-84
2022/01/25 16:24:19;;;;;;;62.10;22.48;;;;;;;;;;5084259;28;20625;-85
2022/01/25 16:26:46;;;;;;;120.03;41.22;;;;;;;;;;5100884;28;20126;-81
2022/01/25 16:29:12;;;;;;;124.15;40.53;;;;;;;;;;5097855;28;20039;-81
2022/01/25 16:31:42;;;;;;;113.93;39.40;;;;;;;;;;5072468;28;20047;-80
2022/01/25 16:34:08;;;;;;;123.43;38.28;;;;;;;;;;5096601;28;20055;-81
2022/01/25 16:36:35;;;;;;;65.00;23.95;;;;;;;;;;5094087;28;20040;-80
2022/01/25 16:39:01;;;;;;;54.67;22.20;;;;;;;;;;5070916;28;20126;-80